St. Catharines Fifth St

*Note: All times are displayed in the local standard time of the station location.
**Rain - Equipment is designed to accurately record liquid precipitation; under conditions when precipitation is not in liquid form, the data displayed may not properly reflect rainfall values.

Date Max Temp
(°C)
Min Temp
(°C)
Avg Temp
(°C)
Rain (mm) Avg RH (%)
Fri, Dec 14, 2018 6.4 -0.3 3.4 1.4 85.1
Thu, Dec 13, 2018 6.4 -1.5 1.3 5.6 90.8
Wed, Dec 12, 2018 1.7 -5.4 -0.9 0.2 85.3
Tue, Dec 11, 2018 -0.1 -1.9 -1.1 0.0 82.3
Mon, Dec 10, 2018 1.3 -2.8 -0.9 0.0 81.6
Sun, Dec 09, 2018 0.8 -8.2 -3.1 0.0 77.9
Sat, Dec 08, 2018 0.3 -6.6 -3.4 0.0 75.8
DateTime Avg Temp (°C) Rain (mm) RH (%)
Sat, Dec 15, 2018 17:00 2.5 0.0 88.4
Sat, Dec 15, 2018 16:00 3.1 0.0 85.6
Sat, Dec 15, 2018 15:00 3.5 0.0 85.0
Sat, Dec 15, 2018 14:00 3.9 0.0 83.3
Sat, Dec 15, 2018 13:00 4.1 0.0 82.1
Sat, Dec 15, 2018 12:00 3.6 0.0 86.5
Sat, Dec 15, 2018 11:00 2.9 0.0 92.1
Sat, Dec 15, 2018 10:00 2.2 0.0 96.3
Sat, Dec 15, 2018 09:00 0.9 0.0 98.3
Sat, Dec 15, 2018 08:00 1.0 0.0 98.3
Sat, Dec 15, 2018 07:00 0.8 0.0 98.1
Sat, Dec 15, 2018 06:00 0.9 0.0 98.3
Sat, Dec 15, 2018 05:00 0.0 0.0 98.0
Sat, Dec 15, 2018 04:00 0.9 0.0 96.2
Sat, Dec 15, 2018 03:00 2.1 0.0 94.1
Sat, Dec 15, 2018 02:00 1.3 0.0 94.8
Sat, Dec 15, 2018 01:00 3.1 0.0 90.3
Sat, Dec 15, 2018 00:00 3.7 0.0 88.5
Fri, Dec 14, 2018 23:00 4.2 0.0 86.3
Fri, Dec 14, 2018 22:00 4.5 0.0 83.1
Fri, Dec 14, 2018 21:00 4.1 0.0 84.1
Fri, Dec 14, 2018 20:00 4.0 0.0 85.1
Fri, Dec 14, 2018 19:00 4.5 0.0 79.5
Fri, Dec 14, 2018 18:00 4.3 0.0 78.2
Fri, Dec 14, 2018 17:00 5.3 0.0 74.3
Fri, Dec 14, 2018 16:00 6.0 0.0 74.0
Fri, Dec 14, 2018 15:00 5.9 0.0 75.2
Fri, Dec 14, 2018 14:00 5.3 0.0 79.1
Fri, Dec 14, 2018 13:00 4.4 0.0 87.9
Fri, Dec 14, 2018 12:00 3.9 0.2 91.7
Fri, Dec 14, 2018 11:00 3.5 1.0 91.3
Fri, Dec 14, 2018 10:00 3.7 0.2 85.9
Fri, Dec 14, 2018 09:00 3.2 0.0 86.0
Fri, Dec 14, 2018 08:00 2.9 0.0 86.4
Fri, Dec 14, 2018 07:00 2.5 0.0 86.7
Fri, Dec 14, 2018 06:00 2.1 0.0 87.1
Fri, Dec 14, 2018 05:00 2.1 0.0 85.1
Fri, Dec 14, 2018 04:00 1.0 0.0 89.3
Fri, Dec 14, 2018 03:00 -0.1 0.0 93.9
Fri, Dec 14, 2018 02:00 0.2 0.0 93.3
Fri, Dec 14, 2018 01:00 0.6 0.0 91.2
Fri, Dec 14, 2018 00:00 0.6 0.0 89.9
Thu, Dec 13, 2018 23:00 0.3 0.0 90.4
Thu, Dec 13, 2018 22:00 -0.3 0.0 93.6
Thu, Dec 13, 2018 21:00 0.2 0.0 95.3
Thu, Dec 13, 2018 20:00 0.1 0.0 95.8
Thu, Dec 13, 2018 19:00 1.2 0.0 93.2
Thu, Dec 13, 2018 18:00 1.8 0.0 90.9


asterix Register now to access more data! asterix